Nerstrand, Minnesota
Current Conditions -  °F | °C
As of 4:34 AM on Thursday 23 Oct 2014 (Local Time) from KSYN Reporting Station
Overcast Overcast  
Wind Chill: 52°   Ceiling: 1800
Heat Index: 52°   Visibility: 10mi
Dew Point: 47°   Wind: 5mph
Humidity: 84%   Direction: 200°SSW
Pressure: 30"   Gusts: NA
Location:  44.34°N, 93.07°W
Report Text: KSYN 230934Z AUTO 20004KT 10SM OVC018 11/08 A3000 RMK AO2 T01090083
Loading
Personal Weather Stations






























Interactive Weather Map
Tropical Storm Tracking
New forecast layout! Learn more

10-Day Weather Forecast

Advertisements
Track Severe Weather on mobile